createdAt,value
2023-03-12T00:00:11.235Z,38.49
2023-03-12T00:05:12.974Z,37.63
2023-03-12T00:10:14.721Z,38.64
2023-03-12T00:15:16.652Z,37.35
2023-03-12T00:20:18.677Z,36.53
2023-03-12T00:25:21.278Z,35.06
2023-03-12T00:30:23.162Z,35.60
2023-03-12T00:35:25.884Z,36.99
2023-03-12T00:40:27.645Z,37.47
2023-03-12T00:45:29.451Z,36.94
2023-03-12T00:50:31.546Z,35.03
2023-03-12T00:55:33.353Z,36.30
2023-03-12T01:00:35.357Z,36.05
2023-03-12T01:05:38.057Z,37.05
2023-03-12T01:10:43.171Z,37.16
2023-03-12T01:15:44.885Z,36.58
2023-03-12T01:20:47.224Z,36.25
2023-03-12T01:25:49.556Z,35.02
2023-03-12T01:30:51.406Z,35.25
2023-03-12T01:35:53.355Z,35.94
2023-03-12T01:40:55.158Z,36.09
2023-03-12T01:46:21.579Z,34.60
2023-03-12T01:51:27.257Z,34.25
2023-03-12T01:56:33.710Z,33.43
2023-03-12T02:01:35.598Z,34.72
2023-03-12T02:06:57.057Z,34.39
2023-03-12T02:11:58.701Z,36.23
2023-03-12T02:17:00.629Z,36.10
2023-03-12T02:22:03.253Z,36.58
2023-03-12T02:27:06.754Z,37.20
2023-03-12T02:32:12.842Z,37.63
2023-03-12T02:37:14.849Z,35.95
2023-03-12T02:42:16.587Z,35.28
2023-03-12T02:47:18.310Z,35.49
2023-03-12T02:52:20.054Z,35.19
2023-03-12T02:57:21.719Z,34.45
2023-03-12T03:02:24.359Z,34.79
2023-03-12T03:07:26.171Z,35.78
2023-03-12T03:12:27.821Z,35.76
2023-03-12T03:17:29.593Z,35.32
2023-03-12T03:22:31.249Z,34.57
2023-03-12T03:27:32.988Z,34.65
2023-03-12T03:32:34.733Z,36.60
2023-03-12T03:37:36.417Z,36.26
2023-03-12T03:42:39.676Z,36.05
2023-03-12T03:47:41.403Z,37.57
2023-03-12T03:52:43.070Z,36.21
2023-03-12T03:57:44.678Z,36.04
2023-03-12T04:02:46.358Z,36.32
2023-03-12T04:07:48.119Z,38.16
2023-03-12T04:12:50.676Z,35.75
2023-03-12T04:17:52.347Z,36.64
2023-03-12T04:22:54.040Z,40.22
2023-03-12T04:27:55.818Z,43.23
2023-03-12T04:32:57.484Z,45.24
2023-03-12T04:38:01.982Z,44.75
2023-03-12T04:43:03.595Z,44.97
2023-03-12T04:48:06.291Z,44.35
2023-03-12T04:53:07.984Z,43.53
2023-03-12T04:58:09.910Z,43.19
2023-03-12T05:03:12.770Z,42.97
2023-03-12T05:08:14.575Z,40.89
2023-03-12T05:13:19.717Z,41.05
2023-03-12T05:18:21.626Z,40.04
2023-03-12T05:23:23.282Z,38.46
2023-03-12T05:28:28.584Z,40.40
2023-03-12T05:33:30.397Z,37.95
2023-03-12T05:38:32.158Z,38.31
2023-03-12T05:43:34.495Z,40.22
2023-03-12T05:48:36.075Z,39.94
2023-03-12T05:53:37.846Z,40.23
2023-03-12T05:58:40.132Z,40.51
2023-03-12T06:03:43.121Z,39.18
2023-03-12T06:08:45.114Z,39.44
2023-03-12T06:13:46.753Z,39.55
2023-03-12T06:18:48.703Z,38.65
2023-03-12T06:23:51.106Z,39.62
2023-03-12T06:28:53.144Z,39.23
2023-03-12T06:33:54.878Z,41.78
2023-03-12T06:38:57.304Z,41.91
2023-03-12T06:43:59.555Z,39.25
2023-03-12T06:49:01.209Z,41.64
2023-03-12T06:54:03.674Z,41.57
2023-03-12T06:59:05.596Z,38.39
2023-03-12T07:04:07.233Z,40.55
2023-03-12T07:09:09.009Z,41.57
2023-03-12T07:14:10.709Z,39.66
2023-03-12T07:19:12.273Z,42.96
2023-03-12T07:24:13.948Z,44.65
2023-03-12T07:29:15.535Z,44.77
2023-03-12T07:34:17.383Z,42.74
2023-03-12T07:39:19.531Z,40.04
2023-03-12T07:44:21.228Z,39.74
2023-03-12T07:49:22.923Z,39.81
2023-03-12T07:54:28.971Z,41.72
2023-03-12T07:59:30.559Z,40.82
2023-03-12T08:04:32.296Z,40.13
2023-03-12T08:09:34.817Z,42.23
2023-03-12T08:14:36.702Z,41.64
2023-03-12T08:19:38.444Z,43.71
2023-03-12T08:24:40.194Z,43.86
2023-03-12T08:29:42.431Z,44.91
2023-03-12T08:34:44.121Z,43.00
2023-03-12T08:39:45.888Z,41.88
2023-03-12T08:44:47.472Z,41.08
2023-03-12T08:49:49.080Z,41.94
2023-03-12T08:54:50.771Z,39.99
2023-03-12T08:59:52.383Z,40.79
2023-03-12T09:04:54.120Z,41.82
2023-03-12T09:09:55.734Z,39.32
2023-03-12T09:15:03.383Z,42.01
2023-03-12T09:20:09.446Z,40.89
2023-03-12T09:25:11.729Z,49.83
2023-03-12T09:30:19.338Z,45.08
2023-03-12T09:35:21.079Z,44.91
2023-03-12T09:40:25.660Z,42.42
2023-03-12T09:45:31.014Z,43.97
2023-03-12T09:50:40.211Z,44.92
2023-03-12T09:55:45.208Z,44.08
2023-03-12T10:00:47.670Z,46.10
2023-03-12T10:06:09.543Z,44.38
2023-03-12T10:11:43.606Z,45.19
2023-03-12T10:16:59.869Z,44.28
2023-03-12T10:22:05.623Z,45.48
2023-03-12T10:27:16.115Z,46.75
2023-03-12T10:32:40.529Z,45.36
2023-03-12T10:38:03.899Z,45.64
2023-03-12T10:43:07.161Z,46.80
2023-03-12T10:48:12.551Z,47.29
2023-03-12T10:53:22.639Z,45.62
2023-03-12T10:58:25.345Z,46.31
2023-03-12T11:06:33.616Z,56.75
2023-03-12T11:11:36.739Z,56.29
2023-03-12T11:16:38.496Z,55.73
2023-03-12T11:21:40.489Z,55.47
2023-03-12T11:26:51.469Z,54.73
2023-03-12T11:32:29.469Z,56.33
2023-03-12T11:37:56.117Z,55.70
2023-03-12T11:43:16.456Z,53.91
2023-03-12T11:48:36.754Z,55.74
2023-03-12T11:53:53.510Z,56.69
2023-03-12T11:59:34.664Z,57.44
2023-03-12T12:04:51.131Z,56.14
2023-03-12T12:10:16.086Z,55.43
2023-03-12T12:16:08.581Z,55.53
2023-03-12T12:21:10.190Z,55.14
2023-03-12T12:26:23.684Z,54.68
2023-03-12T12:31:34.542Z,55.39
2023-03-12T12:36:37.079Z,52.03
2023-03-12T12:41:53.837Z,53.12
2023-03-12T12:47:05.651Z,50.68
2023-03-12T12:52:11.414Z,52.96
2023-03-12T12:57:20.943Z,54.75
2023-03-12T13:02:29.468Z,51.96
2023-03-12T13:07:34.160Z,52.96
2023-03-12T13:12:55.970Z,49.88
2023-03-12T13:18:28.097Z,52.12
2023-03-12T13:23:39.250Z,50.09
2023-03-12T13:28:56.738Z,50.93
2023-03-12T13:34:19.392Z,48.54
2023-03-12T13:39:32.119Z,47.21
2023-03-12T13:44:36.570Z,46.94
2023-03-12T13:49:45.293Z,45.95
2023-03-12T13:54:57.516Z,47.95
2023-03-12T13:59:59.793Z,48.11
2023-03-12T14:05:08.137Z,47.08
2023-03-12T14:10:19.413Z,46.06
2023-03-12T14:15:26.850Z,46.55
2023-03-12T14:20:29.948Z,46.58
2023-03-12T14:25:38.836Z,45.23
2023-03-12T14:31:04.950Z,46.28
2023-03-12T14:36:16.950Z,46.24
2023-03-12T14:41:27.867Z,45.76
2023-03-12T14:46:29.564Z,45.65
2023-03-12T14:51:36.117Z,43.82
2023-03-12T14:56:43.957Z,43.06
2023-03-12T15:01:46.286Z,42.87
2023-03-12T15:06:54.356Z,42.80
2023-03-12T15:12:00.892Z,43.30
2023-03-12T15:17:04.550Z,42.93
2023-03-12T15:22:12.683Z,42.88
2023-03-12T15:27:30.478Z,42.99
2023-03-12T15:32:32.333Z,43.64
2023-03-12T15:37:40.896Z,43.56
2023-03-12T15:42:46.298Z,43.67
2023-03-12T15:47:49.607Z,43.26
2023-03-12T15:53:04.307Z,43.46
2023-03-12T15:58:26.185Z,43.28
2023-03-12T16:03:27.753Z,42.91
2023-03-12T16:08:38.178Z,42.95
2023-03-12T16:13:41.982Z,43.91
2023-03-12T16:18:44.036Z,43.17
2023-03-12T16:23:45.756Z,41.95
2023-03-12T16:28:48.294Z,41.56
2023-03-12T16:33:49.899Z,41.32
2023-03-12T16:38:51.510Z,40.54
2023-03-12T16:43:53.900Z,40.93
2023-03-12T16:48:55.694Z,40.78
2023-03-12T16:54:09.411Z,40.10
2023-03-12T16:59:27.377Z,40.48
2023-03-12T17:04:28.954Z,40.77
2023-03-12T17:09:30.563Z,41.23
2023-03-12T17:14:33.339Z,39.71
2023-03-12T17:19:34.882Z,41.70
2023-03-12T17:24:36.569Z,41.33
2023-03-12T17:29:38.123Z,40.15
2023-03-12T17:34:39.767Z,40.82
2023-03-12T17:39:41.597Z,40.26
2023-03-12T17:44:43.128Z,39.77
2023-03-12T17:49:44.777Z,40.36
2023-03-12T17:54:46.380Z,41.23
2023-03-12T17:59:47.931Z,40.81
2023-03-12T18:04:49.557Z,40.67
2023-03-12T18:09:52.437Z,40.73
2023-03-12T18:14:54.107Z,40.42
2023-03-12T18:19:55.684Z,40.55
2023-03-12T18:24:57.240Z,40.28
2023-03-12T18:29:58.852Z,40.62
2023-03-12T18:35:00.850Z,39.57
2023-03-12T18:40:02.428Z,40.08
2023-03-12T18:45:04.780Z,41.78
2023-03-12T18:50:07.605Z,40.99
2023-03-12T18:55:15.225Z,40.40
2023-03-12T19:00:18.164Z,40.58
2023-03-12T19:05:19.870Z,40.52
2023-03-12T19:10:21.450Z,40.42
2023-03-12T19:15:26.806Z,41.52
2023-03-12T19:20:28.408Z,41.04
2023-03-12T19:25:30.176Z,40.87
2023-03-12T19:30:33.550Z,41.71
2023-03-12T19:35:41.766Z,40.64
2023-03-12T19:40:53.215Z,41.86
2023-03-12T19:45:56.626Z,41.21
2023-03-12T19:51:05.242Z,41.13
2023-03-12T19:56:07.265Z,40.24
2023-03-12T20:01:09.091Z,40.23
2023-03-12T20:06:11.859Z,40.31
2023-03-12T20:11:13.479Z,39.61
2023-03-12T20:16:15.167Z,41.41
2023-03-12T20:21:16.933Z,41.79
2023-03-12T20:26:18.560Z,41.00
2023-03-12T20:31:20.320Z,41.78
2023-03-12T20:36:22.044Z,40.64
2023-03-12T20:41:23.717Z,41.38
2023-03-12T20:46:25.507Z,40.56
2023-03-12T20:51:27.168Z,40.31
2023-03-12T20:56:28.941Z,41.31
2023-03-12T21:01:30.626Z,40.55
2023-03-12T21:06:32.877Z,40.93
2023-03-12T21:11:34.714Z,40.92
2023-03-12T21:16:36.689Z,40.95
2023-03-12T21:21:38.473Z,39.74
2023-03-12T21:26:40.052Z,39.96
2023-03-12T21:31:41.860Z,39.96
2023-03-12T21:36:43.434Z,42.77
2023-03-12T21:41:45.104Z,40.85
2023-03-12T21:46:46.729Z,41.62
2023-03-12T21:51:48.305Z,41.38
2023-03-12T21:56:49.976Z,39.79
2023-03-12T22:01:51.742Z,42.51
2023-03-12T22:06:53.517Z,42.61
2023-03-12T22:11:55.310Z,42.25
2023-03-12T22:16:56.949Z,40.41
2023-03-12T22:21:58.528Z,42.16
2023-03-12T22:27:01.760Z,41.89
2023-03-12T22:32:03.562Z,41.86
2023-03-12T22:37:05.183Z,40.67
2023-03-12T22:42:06.946Z,40.89
2023-03-12T22:47:08.852Z,40.72
2023-03-12T22:52:10.558Z,40.27
2023-03-12T22:57:12.163Z,41.16
2023-03-12T23:02:13.812Z,39.92
2023-03-12T23:07:17.216Z,42.27
2023-03-12T23:12:19.338Z,43.01
2023-03-12T23:17:21.397Z,41.86
2023-03-12T23:22:23.097Z,43.67
2023-03-12T23:27:24.927Z,41.07
2023-03-12T23:32:26.635Z,42.00
2023-03-12T23:37:28.276Z,42.63
2023-03-12T23:42:29.959Z,41.90
2023-03-12T23:47:31.615Z,42.52
2023-03-12T23:52:33.266Z,42.41
2023-03-12T23:57:35.009Z,43.67
